Terminal Aerodrome Forecast
Issued by NWS

Home | Current Version | Previous Version | Text Only | Print | Product List | Glossary On
Versions: 1 2 3 4 5 6 7 8 9 10 11 12 13 14 15
442
FTUS43 KSGF 161230 AAA
TAFJLN
TAF AMD
KJLN 161230Z 1613/1712 19014G22KT P6SM SKC WS020/23045KT
     FM161400 21015G25KT P6SM SKC
     FM170500 18009KT P6SM OVC110
     FM170600 18009KT P6SM SHRA BKN025 OVC090
     FM171000 18006KT 3SM SHRA OVC008=

USA.gov is the U.S. government's official web portal to all federal, state and local government web resources and services.